sensor_id;sensor_type;location;lat;lon;timestamp;temperature;humidity
15184;DHT22;7693;49.266;7.104;2022-08-19T05:10:57;18.10;99.90
15184;DHT22;7693;49.266;7.104;2022-08-19T05:13:23;18.10;99.90
15184;DHT22;7693;49.266;7.104;2022-08-19T05:15:56;18.10;99.90
15184;DHT22;7693;49.266;7.104;2022-08-19T05:18:23;18.10;99.90
15184;DHT22;7693;49.266;7.104;2022-08-19T05:21:13;18.20;99.90
15184;DHT22;7693;49.266;7.104;2022-08-19T05:23:57;18.20;99.90
15184;DHT22;7693;49.266;7.104;2022-08-19T05:26:24;18.30;99.90
15184;DHT22;7693;49.266;7.104;2022-08-19T05:28:53;18.30;99.90
15184;DHT22;7693;49.266;7.104;2022-08-19T05:31:19;18.30;99.90
15184;DHT22;7693;49.266;7.104;2022-08-19T05:33:45;18.30;99.90
15184;DHT22;7693;49.266;7.104;2022-08-19T05:36:11;18.30;99.90
15184;DHT22;7693;49.266;7.104;2022-08-19T05:38:37;18.40;99.90
15184;DHT22;7693;49.266;7.104;2022-08-19T05:41:09;18.40;99.90
15184;DHT22;7693;49.266;7.104;2022-08-19T05:43:36;18.50;99.90
15184;DHT22;7693;49.266;7.104;2022-08-19T05:46:05;18.50;99.90
15184;DHT22;7693;49.266;7.104;2022-08-19T05:48:32;18.50;99.90
15184;DHT22;7693;49.266;7.104;2022-08-19T05:51:02;18.60;99.90
15184;DHT22;7693;49.266;7.104;2022-08-19T05:53:28;18.50;99.90
15184;DHT22;7693;49.266;7.104;2022-08-19T05:55:54;18.60;99.90
15184;DHT22;7693;49.266;7.104;2022-08-19T05:58:19;18.60;99.90
15184;DHT22;7693;49.266;7.104;2022-08-19T06:00:45;18.60;99.90
15184;DHT22;7693;49.266;7.104;2022-08-19T06:03:10;18.60;99.90
15184;DHT22;7693;49.266;7.104;2022-08-19T06:05:36;18.70;99.90
15184;DHT22;7693;49.266;7.104;2022-08-19T06:08:02;18.70;99.90
15184;DHT22;7693;49.266;7.104;2022-08-19T06:10:28;18.80;99.90
15184;DHT22;7693;49.266;7.104;2022-08-19T06:12:54;18.80;99.90
15184;DHT22;7693;49.266;7.104;2022-08-19T06:15:21;18.90;99.90
15184;DHT22;7693;49.266;7.104;2022-08-19T06:17:51;18.90;99.90
15184;DHT22;7693;49.266;7.104;2022-08-19T06:20:16;19.00;99.90
15184;DHT22;7693;49.266;7.104;2022-08-19T06:22:45;19.00;99.90
15184;DHT22;7693;49.266;7.104;2022-08-19T06:25:12;19.10;99.90
15184;DHT22;7693;49.266;7.104;2022-08-19T06:27:40;19.20;99.90
15184;DHT22;7693;49.266;7.104;2022-08-19T06:30:06;19.30;99.90
15184;DHT22;7693;49.266;7.104;2022-08-19T06:32:32;19.30;99.90
15184;DHT22;7693;49.266;7.104;2022-08-19T06:34:58;19.40;99.90
15184;DHT22;7693;49.266;7.104;2022-08-19T06:37:23;19.50;99.90
15184;DHT22;7693;49.266;7.104;2022-08-19T06:39:50;19.60;99.90
15184;DHT22;7693;49.266;7.104;2022-08-19T06:42:16;19.70;99.90
15184;DHT22;7693;49.266;7.104;2022-08-19T06:44:45;19.80;99.90
15184;DHT22;7693;49.266;7.104;2022-08-19T06:47:13;19.90;99.90
15184;DHT22;7693;49.266;7.104;2022-08-19T06:49:39;19.90;99.90
15184;DHT22;7693;49.266;7.104;2022-08-19T06:52:05;20.00;99.90
15184;DHT22;7693;49.266;7.104;2022-08-19T06:54:31;20.00;99.90
15184;DHT22;7693;49.266;7.104;2022-08-19T06:57:01;20.10;99.90
15184;DHT22;7693;49.266;7.104;2022-08-19T06:59:28;20.10;99.90
15184;DHT22;7693;49.266;7.104;2022-08-19T07:01:56;20.20;99.90
15184;DHT22;7693;49.266;7.104;2022-08-19T07:04:24;20.20;99.90
15184;DHT22;7693;49.266;7.104;2022-08-19T07:06:57;20.20;99.90
15184;DHT22;7693;49.266;7.104;2022-08-19T07:09:23;20.20;99.90
15184;DHT22;7693;49.266;7.104;2022-08-19T07:11:51;20.30;99.90
15184;DHT22;7693;49.266;7.104;2022-08-19T07:14:21;20.30;99.90
15184;DHT22;7693;49.266;7.104;2022-08-19T07:16:48;20.40;99.90
15184;DHT22;7693;49.266;7.104;2022-08-19T07:19:15;20.40;99.90
15184;DHT22;7693;49.266;7.104;2022-08-19T07:21:42;20.50;99.90
15184;DHT22;7693;49.266;7.104;2022-08-19T07:24:08;20.60;99.90
15184;DHT22;7693;49.266;7.104;2022-08-19T07:26:39;20.60;99.90
15184;DHT22;7693;49.266;7.104;2022-08-19T07:29:06;20.70;99.90
15184;DHT22;7693;49.266;7.104;2022-08-19T07:31:32;20.80;99.90
15184;DHT22;7693;49.266;7.104;2022-08-19T07:34:04;20.90;99.90
15184;DHT22;7693;49.266;7.104;2022-08-19T07:36:36;21.00;99.90
15184;DHT22;7693;49.266;7.104;2022-08-19T07:39:05;21.10;99.90
15184;DHT22;7693;49.266;7.104;2022-08-19T07:41:32;21.10;99.90
15184;DHT22;7693;49.266;7.104;2022-08-19T07:43:59;21.30;99.90
15184;DHT22;7693;49.266;7.104;2022-08-19T07:46:32;21.40;99.90
15184;DHT22;7693;49.266;7.104;2022-08-19T07:48:58;21.50;99.90
15184;DHT22;7693;49.266;7.104;2022-08-19T07:51:26;21.60;99.90
15184;DHT22;7693;49.266;7.104;2022-08-19T07:53:52;21.70;99.90
15184;DHT22;7693;49.266;7.104;2022-08-19T07:56:20;21.80;99.90
15184;DHT22;7693;49.266;7.104;2022-08-19T07:58:47;21.90;99.90
15184;DHT22;7693;49.266;7.104;2022-08-19T08:01:19;22.00;99.90
15184;DHT22;7693;49.266;7.104;2022-08-19T08:03:45;22.10;99.90
15184;DHT22;7693;49.266;7.104;2022-08-19T08:06:29;22.20;99.90
15184;DHT22;7693;49.266;7.104;2022-08-19T08:09:15;22.40;99.90
15184;DHT22;7693;49.266;7.104;2022-08-19T08:12:08;22.50;99.90
15184;DHT22;7693;49.266;7.104;2022-08-19T08:14:46;22.50;99.90
15184;DHT22;7693;49.266;7.104;2022-08-19T08:17:17;22.60;99.90
15184;DHT22;7693;49.266;7.104;2022-08-19T08:19:44;22.70;99.90
15184;DHT22;7693;49.266;7.104;2022-08-19T08:22:11;22.80;99.90
15184;DHT22;7693;49.266;7.104;2022-08-19T08:25:02;22.80;99.90
15184;DHT22;7693;49.266;7.104;2022-08-19T08:27:28;22.80;99.90
15184;DHT22;7693;49.266;7.104;2022-08-19T08:29:56;22.90;99.90
15184;DHT22;7693;49.266;7.104;2022-08-19T08:32:22;22.90;99.90
15184;DHT22;7693;49.266;7.104;2022-08-19T08:34:48;22.90;99.90
15184;DHT22;7693;49.266;7.104;2022-08-19T08:37:14;23.00;99.90
15184;DHT22;7693;49.266;7.104;2022-08-19T08:39:39;23.10;99.90
15184;DHT22;7693;49.266;7.104;2022-08-19T08:42:28;23.10;99.90
15184;DHT22;7693;49.266;7.104;2022-08-19T08:45:10;23.10;99.90
15184;DHT22;7693;49.266;7.104;2022-08-19T08:47:43;23.20;99.90
15184;DHT22;7693;49.266;7.104;2022-08-19T08:50:22;23.20;99.90
15184;DHT22;7693;49.266;7.104;2022-08-19T08:52:52;23.30;99.90
15184;DHT22;7693;49.266;7.104;2022-08-19T08:55:23;23.40;99.90
15184;DHT22;7693;49.266;7.104;2022-08-19T09:01:00;23.50;99.90
15184;DHT22;7693;49.266;7.104;2022-08-19T09:03:27;23.60;99.90
15184;DHT22;7693;49.266;7.104;2022-08-19T09:06:03;23.60;99.90
15184;DHT22;7693;49.266;7.104;2022-08-19T09:16:44;23.80;99.90
15184;DHT22;7693;49.266;7.104;2022-08-19T09:19:10;23.90;99.90
15184;DHT22;7693;49.266;7.104;2022-08-19T09:21:36;24.00;99.90
15184;DHT22;7693;49.266;7.104;2022-08-19T09:24:03;24.00;99.90
15184;DHT22;7693;49.266;7.104;2022-08-19T09:26:32;24.00;99.90
15184;DHT22;7693;49.266;7.104;2022-08-19T09:28:58;24.20;99.90
15184;DHT22;7693;49.266;7.104;2022-08-19T09:31:28;24.20;99.90
15184;DHT22;7693;49.266;7.104;2022-08-19T09:33:58;24.30;99.90
15184;DHT22;7693;49.266;7.104;2022-08-19T09:36:26;24.40;99.90
15184;DHT22;7693;49.266;7.104;2022-08-19T09:38:54;24.30;99.90
15184;DHT22;7693;49.266;7.104;2022-08-19T09:41:22;24.40;99.90
15184;DHT22;7693;49.266;7.104;2022-08-19T09:43:50;24.50;99.90
15184;DHT22;7693;49.266;7.104;2022-08-19T09:46:21;24.60;99.90
15184;DHT22;7693;49.266;7.104;2022-08-19T09:48:49;24.70;99.90
15184;DHT22;7693;49.266;7.104;2022-08-19T09:51:22;24.60;99.90
15184;DHT22;7693;49.266;7.104;2022-08-19T09:53:48;24.50;99.90
15184;DHT22;7693;49.266;7.104;2022-08-19T09:56:20;24.50;99.90
15184;DHT22;7693;49.266;7.104;2022-08-19T09:58:47;24.60;99.90
15184;DHT22;7693;49.266;7.104;2022-08-19T10:01:19;24.60;99.90
15184;DHT22;7693;49.266;7.104;2022-08-19T10:03:51;24.80;99.90
15184;DHT22;7693;49.266;7.104;2022-08-19T10:06:20;24.90;99.90
15184;DHT22;7693;49.266;7.104;2022-08-19T10:08:46;25.00;99.90
15184;DHT22;7693;49.266;7.104;2022-08-19T10:11:12;25.00;99.90
15184;DHT22;7693;49.266;7.104;2022-08-19T10:13:41;24.90;99.90
15184;DHT22;7693;49.266;7.104;2022-08-19T10:16:11;24.90;99.90
15184;DHT22;7693;49.266;7.104;2022-08-19T10:18:38;25.10;99.90
15184;DHT22;7693;49.266;7.104;2022-08-19T10:21:08;25.30;99.90
15184;DHT22;7693;49.266;7.104;2022-08-19T10:23:35;25.30;99.80
15184;DHT22;7693;49.266;7.104;2022-08-19T10:26:03;25.20;99.20
15184;DHT22;7693;49.266;7.104;2022-08-19T10:28:34;25.10;99.30
15184;DHT22;7693;49.266;7.104;2022-08-19T10:31:07;25.00;99.20
15184;DHT22;7693;49.266;7.104;2022-08-19T10:33:33;25.10;99.20
15184;DHT22;7693;49.266;7.104;2022-08-19T10:36:05;25.20;99.40
15184;DHT22;7693;49.266;7.104;2022-08-19T10:38:31;25.30;99.30
15184;DHT22;7693;49.266;7.104;2022-08-19T10:40:57;25.40;98.80
15184;DHT22;7693;49.266;7.104;2022-08-19T10:43:23;25.40;98.50
15184;DHT22;7693;49.266;7.104;2022-08-19T10:45:54;25.40;98.80
15184;DHT22;7693;49.266;7.104;2022-08-19T10:48:24;25.50;98.10
15184;DHT22;7693;49.266;7.104;2022-08-19T10:50:50;25.50;98.00
15184;DHT22;7693;49.266;7.104;2022-08-19T10:53:34;25.50;97.90
15184;DHT22;7693;49.266;7.104;2022-08-19T10:56:00;25.50;98.10
15184;DHT22;7693;49.266;7.104;2022-08-19T10:58:44;25.50;97.70
15184;DHT22;7693;49.266;7.104;2022-08-19T11:01:09;25.50;97.50
15184;DHT22;7693;49.266;7.104;2022-08-19T11:03:35;25.50;97.20
15184;DHT22;7693;49.266;7.104;2022-08-19T11:06:06;25.40;97.00
15184;DHT22;7693;49.266;7.104;2022-08-19T11:08:33;25.50;97.10
15184;DHT22;7693;49.266;7.104;2022-08-19T11:11:02;25.50;96.90
15184;DHT22;7693;49.266;7.104;2022-08-19T11:13:33;25.50;97.10
15184;DHT22;7693;49.266;7.104;2022-08-19T11:16:11;25.60;96.80
15184;DHT22;7693;49.266;7.104;2022-08-19T11:18:42;25.80;97.10
15184;DHT22;7693;49.266;7.104;2022-08-19T11:21:26;26.00;96.60
15184;DHT22;7693;49.266;7.104;2022-08-19T11:23:56;26.10;96.10
15184;DHT22;7693;49.266;7.104;2022-08-19T11:26:22;26.10;95.70
15184;DHT22;7693;49.266;7.104;2022-08-19T11:28:49;26.00;95.50
15184;DHT22;7693;49.266;7.104;2022-08-19T11:31:21;25.80;95.20
15184;DHT22;7693;49.266;7.104;2022-08-19T11:33:47;25.80;95.60
15184;DHT22;7693;49.266;7.104;2022-08-19T11:36:17;25.90;95.50
15184;DHT22;7693;49.266;7.104;2022-08-19T11:38:45;26.00;94.90
15184;DHT22;7693;49.266;7.104;2022-08-19T11:41:10;26.10;95.00
15184;DHT22;7693;49.266;7.104;2022-08-19T11:43:37;26.30;95.10
15184;DHT22;7693;49.266;7.104;2022-08-19T11:46:07;26.50;94.50
15184;DHT22;7693;49.266;7.104;2022-08-19T11:48:34;26.60;94.20
15184;DHT22;7693;49.266;7.104;2022-08-19T11:51:05;26.70;94.30
15184;DHT22;7693;49.266;7.104;2022-08-19T11:53:31;26.80;93.80
15184;DHT22;7693;49.266;7.104;2022-08-19T11:55:57;26.90;93.00
15184;DHT22;7693;49.266;7.104;2022-08-19T11:58:23;26.80;93.00
15184;DHT22;7693;49.266;7.104;2022-08-19T12:00:50;26.80;93.10
15184;DHT22;7693;49.266;7.104;2022-08-19T12:03:15;26.90;93.60
15184;DHT22;7693;49.266;7.104;2022-08-19T12:05:41;27.00;93.20
15184;DHT22;7693;49.266;7.104;2022-08-19T12:08:07;27.10;92.70
15184;DHT22;7693;49.266;7.104;2022-08-19T12:10:34;27.10;92.70
15184;DHT22;7693;49.266;7.104;2022-08-19T12:13:00;27.10;92.60
15184;DHT22;7693;49.266;7.104;2022-08-19T12:15:27;27.10;92.00
15184;DHT22;7693;49.266;7.104;2022-08-19T12:17:54;27.20;92.30
15184;DHT22;7693;49.266;7.104;2022-08-19T12:20:23;27.30;92.50
15184;DHT22;7693;49.266;7.104;2022-08-19T12:22:48;27.40;92.00
15184;DHT22;7693;49.266;7.104;2022-08-19T12:25:14;27.30;91.90
15184;DHT22;7693;49.266;7.104;2022-08-19T12:27:40;27.10;91.30
15184;DHT22;7693;49.266;7.104;2022-08-19T12:30:08;26.90;91.00
15184;DHT22;7693;49.266;7.104;2022-08-19T12:32:34;26.80;91.30
15184;DHT22;7693;49.266;7.104;2022-08-19T12:35:00;26.60;91.40
15184;DHT22;7693;49.266;7.104;2022-08-19T12:37:26;26.60;91.40
15184;DHT22;7693;49.266;7.104;2022-08-19T12:39:52;26.50;91.60
15184;DHT22;7693;49.266;7.104;2022-08-19T12:42:17;26.40;91.50
15184;DHT22;7693;49.266;7.104;2022-08-19T12:44:44;26.30;91.70
15184;DHT22;7693;49.266;7.104;2022-08-19T12:47:12;26.30;92.20
15184;DHT22;7693;49.266;7.104;2022-08-19T12:49:39;26.50;92.50
15184;DHT22;7693;49.266;7.104;2022-08-19T12:52:07;26.60;92.50
15184;DHT22;7693;49.266;7.104;2022-08-19T12:54:34;26.70;92.20
15184;DHT22;7693;49.266;7.104;2022-08-19T12:56:59;26.80;92.30
15184;DHT22;7693;49.266;7.104;2022-08-19T12:59:26;27.00;92.30
15184;DHT22;7693;49.266;7.104;2022-08-19T13:01:52;27.20;92.40
15184;DHT22;7693;49.266;7.104;2022-08-19T13:04:18;27.30;91.90
15184;DHT22;7693;49.266;7.104;2022-08-19T13:06:44;27.30;91.60
15184;DHT22;7693;49.266;7.104;2022-08-19T13:09:10;27.40;91.90
15184;DHT22;7693;49.266;7.104;2022-08-19T13:11:37;27.50;92.20
15184;DHT22;7693;49.266;7.104;2022-08-19T13:14:04;27.50;91.30
15184;DHT22;7693;49.266;7.104;2022-08-19T13:16:30;27.50;91.30
15184;DHT22;7693;49.266;7.104;2022-08-19T13:18:56;27.40;91.20
15184;DHT22;7693;49.266;7.104;2022-08-19T13:21:25;27.50;91.60
15184;DHT22;7693;49.266;7.104;2022-08-19T13:23:51;27.60;91.50
15184;DHT22;7693;49.266;7.104;2022-08-19T13:26:18;27.70;91.50
15184;DHT22;7693;49.266;7.104;2022-08-19T13:28:44;27.70;90.80
15184;DHT22;7693;49.266;7.104;2022-08-19T13:31:33;27.60;90.80
15184;DHT22;7693;49.266;7.104;2022-08-19T13:34:19;27.60;90.90
15184;DHT22;7693;49.266;7.104;2022-08-19T13:36:46;27.70;90.30
15184;DHT22;7693;49.266;7.104;2022-08-19T13:39:12;27.70;90.20
15184;DHT22;7693;49.266;7.104;2022-08-19T13:41:42;27.70;90.30
15184;DHT22;7693;49.266;7.104;2022-08-19T13:44:08;27.70;90.00
15184;DHT22;7693;49.266;7.104;2022-08-19T13:46:33;27.70;90.30
15184;DHT22;7693;49.266;7.104;2022-08-19T13:48:59;27.80;90.00
15184;DHT22;7693;49.266;7.104;2022-08-19T13:51:25;27.80;90.10
15184;DHT22;7693;49.266;7.104;2022-08-19T13:53:50;27.90;89.50
15184;DHT22;7693;49.266;7.104;2022-08-19T13:56:17;27.70;88.40
15184;DHT22;7693;49.266;7.104;2022-08-19T13:58:45;27.60;88.90
15184;DHT22;7693;49.266;7.104;2022-08-19T14:01:11;27.60;88.50
15184;DHT22;7693;49.266;7.104;2022-08-19T14:03:37;27.50;87.90
15184;DHT22;7693;49.266;7.104;2022-08-19T14:06:03;27.50;88.30
15184;DHT22;7693;49.266;7.104;2022-08-19T14:08:29;27.50;88.30
15184;DHT22;7693;49.266;7.104;2022-08-19T14:10:57;27.60;88.10
15184;DHT22;7693;49.266;7.104;2022-08-19T14:13:24;27.60;86.50
15184;DHT22;7693;49.266;7.104;2022-08-19T14:15:50;27.50;87.80
15184;DHT22;7693;49.266;7.104;2022-08-19T14:18:17;27.60;87.10
15184;DHT22;7693;49.266;7.104;2022-08-19T14:20:43;27.70;87.20
15184;DHT22;7693;49.266;7.104;2022-08-19T14:23:09;27.70;87.20
15184;DHT22;7693;49.266;7.104;2022-08-19T14:25:35;27.60;85.90
15184;DHT22;7693;49.266;7.104;2022-08-19T14:28:01;27.50;86.00
15184;DHT22;7693;49.266;7.104;2022-08-19T14:30:31;27.50;85.90
15184;DHT22;7693;49.266;7.104;2022-08-19T14:32:59;27.60;85.50
15184;DHT22;7693;49.266;7.104;2022-08-19T14:35:27;27.60;84.70
15184;DHT22;7693;49.266;7.104;2022-08-19T14:37:53;27.60;85.00
15184;DHT22;7693;49.266;7.104;2022-08-19T14:40:22;27.70;84.50
15184;DHT22;7693;49.266;7.104;2022-08-19T14:42:52;27.90;84.60
15184;DHT22;7693;49.266;7.104;2022-08-19T14:45:21;28.00;84.30
15184;DHT22;7693;49.266;7.104;2022-08-19T14:47:47;28.00;84.00
15184;DHT22;7693;49.266;7.104;2022-08-19T14:50:13;28.20;84.50
15184;DHT22;7693;49.266;7.104;2022-08-19T14:52:39;28.30;83.20
15184;DHT22;7693;49.266;7.104;2022-08-19T14:55:05;28.30;82.50
15184;DHT22;7693;49.266;7.104;2022-08-19T14:57:31;28.30;83.00
15184;DHT22;7693;49.266;7.104;2022-08-19T14:59:57;28.40;83.40
15184;DHT22;7693;49.266;7.104;2022-08-19T15:02:24;28.50;83.70
15184;DHT22;7693;49.266;7.104;2022-08-19T15:04:49;28.60;82.20
15184;DHT22;7693;49.266;7.104;2022-08-19T15:07:16;28.60;81.80
15184;DHT22;7693;49.266;7.104;2022-08-19T15:09:41;28.60;80.80
15184;DHT22;7693;49.266;7.104;2022-08-19T15:12:07;28.60;78.20
15184;DHT22;7693;49.266;7.104;2022-08-19T15:14:36;28.50;78.60
15184;DHT22;7693;49.266;7.104;2022-08-19T15:17:03;28.30;78.50
15184;DHT22;7693;49.266;7.104;2022-08-19T15:19:31;28.10;78.50
15184;DHT22;7693;49.266;7.104;2022-08-19T15:21:58;28.00;78.30
15184;DHT22;7693;49.266;7.104;2022-08-19T15:24:24;27.80;77.80
15184;DHT22;7693;49.266;7.104;2022-08-19T15:26:52;27.70;79.00
15184;DHT22;7693;49.266;7.104;2022-08-19T15:29:18;27.70;78.10
15184;DHT22;7693;49.266;7.104;2022-08-19T15:31:43;27.70;78.70
15184;DHT22;7693;49.266;7.104;2022-08-19T15:34:10;27.60;77.50
15184;DHT22;7693;49.266;7.104;2022-08-19T15:36:38;27.50;77.30
15184;DHT22;7693;49.266;7.104;2022-08-19T15:39:04;27.40;77.50
15184;DHT22;7693;49.266;7.104;2022-08-19T15:41:31;27.30;78.10
15184;DHT22;7693;49.266;7.104;2022-08-19T15:44:02;27.30;78.40
15184;DHT22;7693;49.266;7.104;2022-08-19T15:46:30;27.40;77.70
15184;DHT22;7693;49.266;7.104;2022-08-19T15:48:57;27.30;77.80
15184;DHT22;7693;49.266;7.104;2022-08-19T15:51:24;27.40;78.10
15184;DHT22;7693;49.266;7.104;2022-08-19T15:53:50;27.40;78.00
15184;DHT22;7693;49.266;7.104;2022-08-19T15:56:16;27.50;77.30
15184;DHT22;7693;49.266;7.104;2022-08-19T15:58:42;27.40;76.80
15184;DHT22;7693;49.266;7.104;2022-08-19T16:01:26;27.40;76.50
15184;DHT22;7693;49.266;7.104;2022-08-19T16:04:11;27.30;76.30
15184;DHT22;7693;49.266;7.104;2022-08-19T16:06:57;27.20;76.40
15184;DHT22;7693;49.266;7.104;2022-08-19T16:09:28;27.20;76.90
15184;DHT22;7693;49.266;7.104;2022-08-19T16:12:01;27.20;77.10
15184;DHT22;7693;49.266;7.104;2022-08-19T16:14:28;27.20;77.30
15184;DHT22;7693;49.266;7.104;2022-08-19T16:16:54;27.20;77.50
15184;DHT22;7693;49.266;7.104;2022-08-19T16:19:21;27.20;76.90
15184;DHT22;7693;49.266;7.104;2022-08-19T16:21:49;27.20;77.00
15184;DHT22;7693;49.266;7.104;2022-08-19T16:24:17;27.20;76.80
15184;DHT22;7693;49.266;7.104;2022-08-19T16:26:44;27.10;76.60
15184;DHT22;7693;49.266;7.104;2022-08-19T16:29:10;27.00;77.30
15184;DHT22;7693;49.266;7.104;2022-08-19T16:31:37;26.90;76.50
15184;DHT22;7693;49.266;7.104;2022-08-19T16:34:04;26.90;76.70
15184;DHT22;7693;49.266;7.104;2022-08-19T16:36:29;26.80;76.90
15184;DHT22;7693;49.266;7.104;2022-08-19T16:38:56;26.80;77.20
15184;DHT22;7693;49.266;7.104;2022-08-19T16:41:21;26.90;78.60
15184;DHT22;7693;49.266;7.104;2022-08-19T16:43:47;26.90;77.30
15184;DHT22;7693;49.266;7.104;2022-08-19T16:46:20;26.80;77.00
15184;DHT22;7693;49.266;7.104;2022-08-19T16:48:46;26.70;77.40
15184;DHT22;7693;49.266;7.104;2022-08-19T16:51:13;26.70;78.50
15184;DHT22;7693;49.266;7.104;2022-08-19T16:53:40;26.60;78.10
15184;DHT22;7693;49.266;7.104;2022-08-19T16:56:07;26.50;77.70
15184;DHT22;7693;49.266;7.104;2022-08-19T16:58:33;26.40;77.90
15184;DHT22;7693;49.266;7.104;2022-08-19T17:01:02;26.30;78.10
15184;DHT22;7693;49.266;7.104;2022-08-19T17:03:28;26.30;78.60
15184;DHT22;7693;49.266;7.104;2022-08-19T17:05:57;26.30;78.50
15184;DHT22;7693;49.266;7.104;2022-08-19T17:08:24;26.20;78.60
15184;DHT22;7693;49.266;7.104;2022-08-19T17:10:52;26.10;78.70
15184;DHT22;7693;49.266;7.104;2022-08-19T17:13:22;26.10;78.90
15184;DHT22;7693;49.266;7.104;2022-08-19T17:15:48;26.00;79.00
15184;DHT22;7693;49.266;7.104;2022-08-19T17:18:15;25.90;79.10
15184;DHT22;7693;49.266;7.104;2022-08-19T17:20:41;25.90;81.00
15184;DHT22;7693;49.266;7.104;2022-08-19T17:23:08;26.10;81.80
15184;DHT22;7693;49.266;7.104;2022-08-19T17:25:34;26.20;81.20
15184;DHT22;7693;49.266;7.104;2022-08-19T17:28:10;26.20;80.50
15184;DHT22;7693;49.266;7.104;2022-08-19T17:30:36;26.10;80.20
15184;DHT22;7693;49.266;7.104;2022-08-19T17:33:03;26.10;80.40
15184;DHT22;7693;49.266;7.104;2022-08-19T17:35:29;26.00;80.30
15184;DHT22;7693;49.266;7.104;2022-08-19T17:37:54;25.90;80.90
15184;DHT22;7693;49.266;7.104;2022-08-19T17:40:20;25.90;80.70
15184;DHT22;7693;49.266;7.104;2022-08-19T17:42:46;25.80;80.80
15184;DHT22;7693;49.266;7.104;2022-08-19T17:45:13;25.70;81.10
15184;DHT22;7693;49.266;7.104;2022-08-19T17:47:39;25.60;81.30
15184;DHT22;7693;49.266;7.104;2022-08-19T17:50:08;25.50;81.60
15184;DHT22;7693;49.266;7.104;2022-08-19T17:52:34;25.40;82.00
15184;DHT22;7693;49.266;7.104;2022-08-19T17:55:01;25.30;82.20
15184;DHT22;7693;49.266;7.104;2022-08-19T17:57:27;25.20;82.40
15184;DHT22;7693;49.266;7.104;2022-08-19T17:59:52;25.10;82.50
15184;DHT22;7693;49.266;7.104;2022-08-19T18:02:18;25.00;82.50
15184;DHT22;7693;49.266;7.104;2022-08-19T18:04:44;25.00;83.10
15184;DHT22;7693;49.266;7.104;2022-08-19T18:07:10;24.90;83.00
15184;DHT22;7693;49.266;7.104;2022-08-19T18:09:39;24.80;83.30
15184;DHT22;7693;49.266;7.104;2022-08-19T18:12:06;24.70;83.50
15184;DHT22;7693;49.266;7.104;2022-08-19T18:14:34;24.70;83.80
15184;DHT22;7693;49.266;7.104;2022-08-19T18:17:07;24.70;84.00
15184;DHT22;7693;49.266;7.104;2022-08-19T18:19:37;24.60;84.30
15184;DHT22;7693;49.266;7.104;2022-08-19T18:22:03;24.60;84.40
15184;DHT22;7693;49.266;7.104;2022-08-19T18:24:29;24.50;84.60
15184;DHT22;7693;49.266;7.104;2022-08-19T18:26:54;24.50;84.90
15184;DHT22;7693;49.266;7.104;2022-08-19T18:29:20;24.40;85.00
15184;DHT22;7693;49.266;7.104;2022-08-19T18:31:46;24.40;85.40
15184;DHT22;7693;49.266;7.104;2022-08-19T18:34:12;24.40;85.60
15184;DHT22;7693;49.266;7.104;2022-08-19T18:36:39;24.30;85.70
15184;DHT22;7693;49.266;7.104;2022-08-19T18:39:05;24.30;85.90
15184;DHT22;7693;49.266;7.104;2022-08-19T18:41:49;24.30;86.20
15184;DHT22;7693;49.266;7.104;2022-08-19T18:44:37;24.20;86.20
15184;DHT22;7693;49.266;7.104;2022-08-19T18:47:22;24.20;86.60
15184;DHT22;7693;49.266;7.104;2022-08-19T18:50:07;24.10;86.80
15184;DHT22;7693;49.266;7.104;2022-08-19T18:52:34;24.10;87.00
15184;DHT22;7693;49.266;7.104;2022-08-19T18:55:02;24.10;87.40
15184;DHT22;7693;49.266;7.104;2022-08-19T18:57:28;24.00;87.40
15184;DHT22;7693;49.266;7.104;2022-08-19T18:59:54;24.00;87.50
15184;DHT22;7693;49.266;7.104;2022-08-19T19:02:21;24.00;87.80
15184;DHT22;7693;49.266;7.104;2022-08-19T19:04:47;24.00;89.70
15184;DHT22;7693;49.266;7.104;2022-08-19T19:07:13;24.00;88.30
15184;DHT22;7693;49.266;7.104;2022-08-19T19:09:39;23.90;88.30
15184;DHT22;7693;49.266;7.104;2022-08-19T19:12:08;23.90;88.50
15184;DHT22;7693;49.266;7.104;2022-08-19T19:14:40;23.80;88.50
15184;DHT22;7693;49.266;7.104;2022-08-19T19:17:08;23.80;89.00
15184;DHT22;7693;49.266;7.104;2022-08-19T19:19:39;23.80;89.10
15184;DHT22;7693;49.266;7.104;2022-08-19T19:22:08;23.70;89.20
15184;DHT22;7693;49.266;7.104;2022-08-19T19:24:36;23.70;89.30
15184;DHT22;7693;49.266;7.104;2022-08-19T19:27:04;23.70;89.30
15184;DHT22;7693;49.266;7.104;2022-08-19T19:29:35;23.60;89.60
15184;DHT22;7693;49.266;7.104;2022-08-19T19:32:06;23.60;89.80
15184;DHT22;7693;49.266;7.104;2022-08-19T19:34:33;23.50;90.00
15184;DHT22;7693;49.266;7.104;2022-08-19T19:37:01;23.50;90.10
15184;DHT22;7693;49.266;7.104;2022-08-19T19:39:26;23.50;90.10
15184;DHT22;7693;49.266;7.104;2022-08-19T19:41:52;23.50;90.20
15184;DHT22;7693;49.266;7.104;2022-08-19T19:44:17;23.50;90.30
15184;DHT22;7693;49.266;7.104;2022-08-19T19:46:44;23.40;90.30
15184;DHT22;7693;49.266;7.104;2022-08-19T19:49:11;23.30;90.50
15184;DHT22;7693;49.266;7.104;2022-08-19T19:51:37;23.30;90.60
15184;DHT22;7693;49.266;7.104;2022-08-19T19:54:04;23.30;90.60
15184;DHT22;7693;49.266;7.104;2022-08-19T19:56:30;23.30;90.80
15184;DHT22;7693;49.266;7.104;2022-08-19T19:58:56;23.20;90.80
15184;DHT22;7693;49.266;7.104;2022-08-19T20:01:22;23.20;90.90
15184;DHT22;7693;49.266;7.104;2022-08-19T20:03:50;23.20;91.00
15184;DHT22;7693;49.266;7.104;2022-08-19T20:06:17;23.10;91.10
15184;DHT22;7693;49.266;7.104;2022-08-19T20:08:44;23.10;91.20
15184;DHT22;7693;49.266;7.104;2022-08-19T20:11:37;23.10;91.30
15184;DHT22;7693;49.266;7.104;2022-08-19T20:14:07;23.10;91.40
15184;DHT22;7693;49.266;7.104;2022-08-19T20:16:33;23.00;91.50
15184;DHT22;7693;49.266;7.104;2022-08-19T20:19:00;23.00;91.60
15184;DHT22;7693;49.266;7.104;2022-08-19T20:21:28;23.00;91.60
15184;DHT22;7693;49.266;7.104;2022-08-19T20:23:58;22.90;91.70
15184;DHT22;7693;49.266;7.104;2022-08-19T20:26:24;22.90;91.90
15184;DHT22;7693;49.266;7.104;2022-08-19T20:28:50;22.90;91.90
15184;DHT22;7693;49.266;7.104;2022-08-19T20:31:17;22.80;92.00
15184;DHT22;7693;49.266;7.104;2022-08-19T20:33:44;22.80;92.10
15184;DHT22;7693;49.266;7.104;2022-08-19T20:36:10;22.80;92.20
15184;DHT22;7693;49.266;7.104;2022-08-19T20:38:35;22.80;92.30
15184;DHT22;7693;49.266;7.104;2022-08-19T20:41:02;22.70;92.30
15184;DHT22;7693;49.266;7.104;2022-08-19T20:43:29;22.70;92.30
15184;DHT22;7693;49.266;7.104;2022-08-19T20:45:55;22.70;92.40
15184;DHT22;7693;49.266;7.104;2022-08-19T20:48:20;22.70;92.50
15184;DHT22;7693;49.266;7.104;2022-08-19T20:50:46;22.60;92.60
15184;DHT22;7693;49.266;7.104;2022-08-19T20:53:19;22.60;92.70
15184;DHT22;7693;49.266;7.104;2022-08-19T20:55:47;22.60;92.90
15184;DHT22;7693;49.266;7.104;2022-08-19T20:58:15;22.60;92.90
15184;DHT22;7693;49.266;7.104;2022-08-19T21:00:42;22.60;93.00
15184;DHT22;7693;49.266;7.104;2022-08-19T21:03:15;22.60;93.10
15184;DHT22;7693;49.266;7.104;2022-08-19T21:05:42;22.60;93.20
15184;DHT22;7693;49.266;7.104;2022-08-19T21:08:07;22.60;93.20
15184;DHT22;7693;49.266;7.104;2022-08-19T21:10:34;22.50;93.30
15184;DHT22;7693;49.266;7.104;2022-08-19T21:12:59;22.50;93.40